createdAt,value
2023-02-03T00:00:34.580Z,100228.25
2023-02-03T00:03:03.209Z,100232.42
2023-02-03T00:05:32.215Z,100231.47
2023-02-03T00:08:01.030Z,100230.23
2023-02-03T00:10:29.827Z,100231.21
2023-02-03T00:12:58.505Z,100229.43
2023-02-03T00:15:27.645Z,100228.85
2023-02-03T00:17:56.931Z,100229.19
2023-02-03T00:20:26.526Z,100227.27
2023-02-03T00:22:55.914Z,100227.19
2023-02-03T00:25:25.314Z,100232.21
2023-02-03T00:27:54.010Z,100230.38
2023-02-03T00:30:22.583Z,100233.05
2023-02-03T00:32:52.191Z,100233.84
2023-02-03T00:35:20.574Z,100238.60
2023-02-03T00:37:55.803Z,100234.71
2023-02-03T00:40:26.215Z,100233.66
2023-02-03T00:42:55.251Z,100232.14
2023-02-03T00:45:23.949Z,100226.27
2023-02-03T00:47:52.600Z,100222.16
2023-02-03T00:50:21.366Z,100224.34
2023-02-03T00:52:49.872Z,100227.02
2023-02-03T00:55:18.500Z,100233.23
2023-02-03T00:57:47.116Z,100232.31
2023-02-03T01:00:16.340Z,100228.26
2023-02-03T01:02:46.093Z,100230.10
2023-02-03T01:05:15.316Z,100228.30
2023-02-03T01:07:44.549Z,100226.63
2023-02-03T01:10:15.083Z,100225.81
2023-02-03T01:12:44.490Z,100227.95
2023-02-03T01:15:12.981Z,100222.84
2023-02-03T01:17:41.889Z,100223.58
2023-02-03T01:20:12.489Z,100221.20
2023-02-03T01:22:40.907Z,100222.36
2023-02-03T01:25:09.707Z,100225.50
2023-02-03T01:27:39.699Z,100225.46
2023-02-03T01:30:08.832Z,100228.15
2023-02-03T01:32:40.528Z,100225.91
2023-02-03T01:35:09.110Z,100229.48
2023-02-03T01:37:37.804Z,100226.59
2023-02-03T01:40:07.533Z,100227.91
2023-02-03T01:42:35.889Z,100230.31
2023-02-03T01:45:05.298Z,100227.73
2023-02-03T01:47:44.329Z,100224.89
2023-02-03T01:50:33.420Z,100227.10
2023-02-03T01:53:04.055Z,100224.79
2023-02-03T01:55:35.405Z,100225.91
2023-02-03T01:58:05.476Z,100225.55
2023-02-03T02:00:33.869Z,100225.13
2023-02-03T02:03:02.766Z,100215.64
2023-02-03T02:05:39.292Z,100214.85
2023-02-03T02:08:08.124Z,100212.33
2023-02-03T02:10:36.618Z,100216.61
2023-02-03T02:13:05.395Z,100221.63
2023-02-03T02:15:38.153Z,100224.41
2023-02-03T02:18:16.578Z,100223.23
2023-02-03T02:21:23.775Z,100222.10
2023-02-03T02:24:04.979Z,100228.94
2023-02-03T02:26:44.898Z,100228.36
2023-02-03T02:29:44.473Z,100229.08
2023-02-03T02:32:40.444Z,100236.67
2023-02-03T02:35:47.921Z,100240.36
2023-02-03T02:38:35.109Z,100244.69
2023-02-03T02:41:04.146Z,100241.83
2023-02-03T02:43:35.607Z,100236.29
2023-02-03T02:46:09.639Z,100232.47
2023-02-03T02:48:55.388Z,100230.59
2023-02-03T02:51:24.137Z,100235.36
2023-02-03T02:54:02.411Z,100239.11
2023-02-03T02:56:32.207Z,100241.27
2023-02-03T02:59:01.717Z,100236.02
2023-02-03T03:01:30.337Z,100238.37
2023-02-03T03:03:59.729Z,100242.74
2023-02-03T03:06:30.625Z,100240.35
2023-02-03T03:09:08.547Z,100242.19
2023-02-03T03:11:45.524Z,100241.73
2023-02-03T03:14:13.993Z,100242.91
2023-02-03T03:16:44.654Z,100241.71
2023-02-03T03:19:15.458Z,100237.91
2023-02-03T03:21:49.561Z,100235.96
2023-02-03T03:24:20.736Z,100236.02
2023-02-03T03:26:56.200Z,100235.04
2023-02-03T03:29:32.422Z,100239.34
2023-02-03T03:32:01.641Z,100240.91
2023-02-03T03:34:31.032Z,100242.36
2023-02-03T03:37:07.341Z,100239.30
2023-02-03T03:39:56.787Z,100237.56
2023-02-03T03:42:31.666Z,100236.96
2023-02-03T03:45:20.249Z,100236.91
2023-02-03T03:48:02.144Z,100236.53
2023-02-03T03:50:34.884Z,100238.34
2023-02-03T03:53:03.609Z,100238.69
2023-02-03T03:55:32.760Z,100241.52
2023-02-03T03:58:06.520Z,100242.55
2023-02-03T04:00:37.768Z,100244.50
2023-02-03T04:03:09.086Z,100250.38
2023-02-03T04:05:37.357Z,100246.46
2023-02-03T04:08:05.815Z,100245.23
2023-02-03T04:10:40.744Z,100247.29
2023-02-03T04:13:09.948Z,100247.70
2023-02-03T04:15:40.178Z,100250.02
2023-02-03T04:18:11.443Z,100251.73
2023-02-03T04:20:39.840Z,100257.42
2023-02-03T04:23:08.935Z,100254.52
2023-02-03T04:25:37.632Z,100257.40
2023-02-03T04:28:07.026Z,100254.00
2023-02-03T04:30:35.767Z,100256.54
2023-02-03T04:33:05.244Z,100255.17
2023-02-03T04:35:33.984Z,100256.58
2023-02-03T04:38:02.485Z,100257.36
2023-02-03T04:40:32.466Z,100256.48
2023-02-03T04:43:07.235Z,100257.08
2023-02-03T04:45:36.149Z,100257.33
2023-02-03T04:48:07.469Z,100262.00
2023-02-03T04:50:36.058Z,100264.21
2023-02-03T04:53:04.489Z,100263.98
2023-02-03T04:55:32.923Z,100267.41
2023-02-03T04:58:01.728Z,100269.59
2023-02-03T05:00:30.573Z,100273.48
2023-02-03T05:02:59.760Z,100270.98
2023-02-03T05:05:28.739Z,100273.66
2023-02-03T05:07:57.690Z,100277.20
2023-02-03T05:10:26.378Z,100279.20
2023-02-03T05:12:56.174Z,100281.17
2023-02-03T05:15:25.034Z,100281.52
2023-02-03T05:17:53.911Z,100279.75
2023-02-03T05:20:22.948Z,100279.67
2023-02-03T05:22:51.734Z,100279.92
2023-02-03T05:25:20.553Z,100279.41
2023-02-03T05:27:49.442Z,100276.21
2023-02-03T05:30:18.737Z,100279.04
2023-02-03T05:32:47.301Z,100278.77
2023-02-03T05:35:15.937Z,100279.02
2023-02-03T05:37:45.854Z,100282.67
2023-02-03T05:40:32.951Z,100287.73
2023-02-03T05:43:01.872Z,100293.66
2023-02-03T05:45:30.451Z,100299.77
2023-02-03T05:47:58.871Z,100300.13
2023-02-03T05:50:30.699Z,100301.66
2023-02-03T05:53:08.742Z,100302.32
2023-02-03T05:55:37.953Z,100300.66
2023-02-03T05:58:06.942Z,100302.27
2023-02-03T06:00:36.247Z,100302.13
2023-02-03T06:03:05.218Z,100305.67
2023-02-03T06:05:34.045Z,100309.61
2023-02-03T06:08:02.531Z,100308.41
2023-02-03T06:10:31.075Z,100314.29
2023-02-03T06:13:00.376Z,100315.84
2023-02-03T06:15:29.071Z,100319.67
2023-02-03T06:17:57.852Z,100320.38
2023-02-03T06:20:26.508Z,100323.50
2023-02-03T06:22:55.431Z,100322.65
2023-02-03T06:25:24.627Z,100324.77
2023-02-03T06:27:53.319Z,100329.17
2023-02-03T06:30:24.007Z,100328.48
2023-02-03T06:32:52.757Z,100328.79
2023-02-03T06:35:21.282Z,100329.65
2023-02-03T06:37:49.927Z,100331.17
2023-02-03T06:40:18.934Z,100330.13
2023-02-03T06:42:48.071Z,100331.76
2023-02-03T06:45:16.680Z,100335.89
2023-02-03T06:47:45.825Z,100340.97
2023-02-03T06:50:15.187Z,100342.01
2023-02-03T06:52:43.965Z,100340.18
2023-02-03T06:55:12.647Z,100337.46
2023-02-03T06:57:45.940Z,100333.36
2023-02-03T07:00:18.439Z,100328.61
2023-02-03T07:02:50.596Z,100326.45
2023-02-03T07:05:19.206Z,100325.55
2023-02-03T07:07:47.659Z,100323.85
2023-02-03T07:10:17.610Z,100321.95
2023-02-03T07:12:46.617Z,100322.83
2023-02-03T07:15:15.243Z,100323.61
2023-02-03T07:17:44.344Z,100317.50
2023-02-03T07:20:13.195Z,100322.15
2023-02-03T07:22:44.019Z,100322.41
2023-02-03T07:25:12.649Z,100321.77
2023-02-03T07:27:41.301Z,100318.46
2023-02-03T07:30:10.771Z,100319.94
2023-02-03T07:32:39.594Z,100319.45
2023-02-03T07:35:08.830Z,100325.95
2023-02-03T07:37:38.346Z,100320.85
2023-02-03T07:40:07.649Z,100321.95
2023-02-03T07:42:40.959Z,100321.73
2023-02-03T07:45:10.749Z,100317.83
2023-02-03T07:47:39.378Z,100313.86
2023-02-03T07:50:09.046Z,100307.83
2023-02-03T07:52:37.949Z,100307.54
2023-02-03T07:55:07.843Z,100297.11
2023-02-03T07:57:37.257Z,100296.77
2023-02-03T08:00:06.437Z,100298.33
2023-02-03T08:02:42.023Z,100290.76
2023-02-03T08:05:11.065Z,100290.04
2023-02-03T08:07:39.701Z,100279.09
2023-02-03T08:10:08.801Z,100272.80
2023-02-03T08:12:37.341Z,100267.90
2023-02-03T08:15:06.770Z,100263.17
2023-02-03T08:17:36.251Z,100260.98
2023-02-03T08:20:05.482Z,100260.25
2023-02-03T08:22:34.483Z,100262.70
2023-02-03T08:25:04.154Z,100260.47
2023-02-03T08:27:36.857Z,100261.10
2023-02-03T08:30:06.400Z,100260.10
2023-02-03T08:32:34.742Z,100260.73
2023-02-03T08:35:03.509Z,100259.80
2023-02-03T08:37:32.963Z,100261.45
2023-02-03T08:40:01.459Z,100267.16
2023-02-03T08:42:30.078Z,100271.20
2023-02-03T08:44:58.741Z,100265.86
2023-02-03T08:47:29.189Z,100266.55
2023-02-03T08:49:57.682Z,100266.70
2023-02-03T08:52:26.110Z,100262.48
2023-02-03T08:54:54.537Z,100269.02
2023-02-03T08:57:23.248Z,100268.73
2023-02-03T08:59:53.439Z,100274.30
2023-02-03T09:02:22.239Z,100273.16
2023-02-03T09:04:52.250Z,100271.81
2023-02-03T09:07:20.929Z,100271.71
2023-02-03T09:09:49.618Z,100266.27
2023-02-03T09:12:18.035Z,100266.16
2023-02-03T09:14:46.507Z,100266.17
2023-02-03T09:17:15.075Z,100264.58
2023-02-03T09:19:43.598Z,100258.91
2023-02-03T09:22:12.254Z,100258.94
2023-02-03T09:24:40.934Z,100254.91
2023-02-03T09:27:09.675Z,100251.57
2023-02-03T09:29:38.190Z,100248.77
2023-02-03T09:32:10.392Z,100248.92
2023-02-03T09:34:40.884Z,100243.69
2023-02-03T09:37:10.911Z,100240.94
2023-02-03T09:39:39.586Z,100242.22
2023-02-03T09:42:18.550Z,100241.48
2023-02-03T09:45:24.175Z,100242.42
2023-02-03T09:47:55.629Z,100242.45
2023-02-03T09:50:25.900Z,100244.00
2023-02-03T09:52:54.525Z,100242.55
2023-02-03T09:55:26.403Z,100235.75
2023-02-03T09:58:02.323Z,100230.20
2023-02-03T10:00:51.688Z,100228.22
2023-02-03T10:03:23.081Z,100226.04
2023-02-03T10:06:04.080Z,100221.63
2023-02-03T10:08:41.429Z,100222.52
2023-02-03T10:11:35.204Z,100221.42
2023-02-03T10:14:42.326Z,100223.70
2023-02-03T10:17:55.108Z,100228.60
2023-02-03T10:20:33.767Z,100225.98
2023-02-03T10:23:32.568Z,100224.08
2023-02-03T10:26:06.595Z,100224.31
2023-02-03T10:29:07.588Z,100223.94
2023-02-03T10:31:36.726Z,100215.55
2023-02-03T10:34:11.314Z,100216.45
2023-02-03T10:37:16.432Z,100211.83
2023-02-03T10:39:49.216Z,100211.72
2023-02-03T10:42:18.011Z,100204.96
2023-02-03T10:44:57.340Z,100208.76
2023-02-03T10:47:28.891Z,100205.41
2023-02-03T10:49:57.930Z,100206.44
2023-02-03T10:52:34.149Z,100207.20
2023-02-03T10:55:30.384Z,100204.59
2023-02-03T10:57:59.280Z,100202.12
2023-02-03T11:00:30.388Z,100193.16
2023-02-03T11:03:06.908Z,100194.86
2023-02-03T11:05:36.107Z,100193.06
2023-02-03T11:08:05.216Z,100195.59
2023-02-03T11:10:36.379Z,100191.56
2023-02-03T11:13:21.403Z,100189.35
2023-02-03T11:16:06.497Z,100189.25
2023-02-03T11:18:51.712Z,100186.03
2023-02-03T11:21:32.298Z,100182.94
2023-02-03T11:24:05.193Z,100178.85
2023-02-03T11:26:40.290Z,100181.45
2023-02-03T11:29:15.518Z,100173.98
2023-02-03T11:31:47.078Z,100178.80
2023-02-03T11:34:17.646Z,100182.16
2023-02-03T11:36:46.009Z,100178.34
2023-02-03T11:39:35.944Z,100176.92
2023-02-03T11:42:31.384Z,100172.80
2023-02-03T11:45:18.547Z,100168.25
2023-02-03T11:47:51.849Z,100169.08
2023-02-03T11:50:39.717Z,100170.56
2023-02-03T11:53:08.057Z,100173.70
2023-02-03T11:55:53.643Z,100174.67
2023-02-03T11:58:41.670Z,100171.52
2023-02-03T12:01:47.753Z,100168.45
2023-02-03T12:04:18.107Z,100168.29
2023-02-03T12:07:17.879Z,100170.15
2023-02-03T12:09:50.662Z,100167.81
2023-02-03T12:12:33.836Z,100164.45
2023-02-03T12:15:02.240Z,100166.74
2023-02-03T12:17:35.403Z,100161.13
2023-02-03T12:20:07.416Z,100160.92
2023-02-03T12:22:56.384Z,100157.24
2023-02-03T12:26:17.799Z,100159.73
2023-02-03T12:28:54.138Z,100152.95
2023-02-03T12:31:37.243Z,100152.85
2023-02-03T12:34:26.355Z,100150.46
2023-02-03T12:37:02.858Z,100151.35
2023-02-03T12:39:36.983Z,100147.52
2023-02-03T12:42:27.611Z,100146.43
2023-02-03T12:45:09.379Z,100145.97
2023-02-03T12:47:47.363Z,100141.36
2023-02-03T12:50:35.068Z,100142.23
2023-02-03T12:53:17.245Z,100136.79
2023-02-03T12:55:55.992Z,100134.90
2023-02-03T12:58:28.634Z,100129.11
2023-02-03T13:01:01.332Z,100131.93
2023-02-03T13:03:57.416Z,100133.02
2023-02-03T13:06:31.139Z,100129.53
2023-02-03T13:09:01.838Z,100128.28
2023-02-03T13:11:46.783Z,100124.47
2023-02-03T13:14:21.542Z,100119.86
2023-02-03T13:17:00.405Z,100118.67
2023-02-03T13:19:30.973Z,100118.95
2023-02-03T13:21:59.587Z,100117.21
2023-02-03T13:24:29.341Z,100113.19
2023-02-03T13:27:05.014Z,100112.73
2023-02-03T13:29:49.826Z,100112.97
2023-02-03T13:32:37.716Z,100111.14
2023-02-03T13:35:24.818Z,100107.73
2023-02-03T13:38:04.499Z,100103.48
2023-02-03T13:41:09.153Z,100105.16
2023-02-03T13:43:44.822Z,100102.94
2023-02-03T13:46:29.317Z,100102.23
2023-02-03T13:49:00.088Z,100098.61
2023-02-03T13:51:43.665Z,100099.23
2023-02-03T13:54:37.112Z,100100.67
2023-02-03T13:57:07.200Z,100105.15
2023-02-03T13:59:42.456Z,100110.64
2023-02-03T14:02:39.089Z,100106.27
2023-02-03T14:05:10.001Z,100110.94
2023-02-03T14:07:39.600Z,100111.33
2023-02-03T14:10:14.534Z,100115.47
2023-02-03T14:12:52.570Z,100115.42
2023-02-03T14:15:23.399Z,100112.08
2023-02-03T14:17:52.061Z,100107.86
2023-02-03T14:20:29.550Z,100104.96
2023-02-03T14:23:07.177Z,100104.77
2023-02-03T14:26:05.079Z,100105.23
2023-02-03T14:28:42.606Z,100106.08
2023-02-03T14:31:24.168Z,100106.16
2023-02-03T14:33:55.868Z,100110.16
2023-02-03T14:36:30.434Z,100109.59
2023-02-03T14:39:01.641Z,100110.78
2023-02-03T14:41:48.581Z,100110.66
2023-02-03T14:44:23.160Z,100107.75
2023-02-03T14:47:04.798Z,100105.55
2023-02-03T14:49:36.610Z,100104.05
2023-02-03T14:52:08.553Z,100104.88
2023-02-03T14:54:52.515Z,100103.40
2023-02-03T14:57:41.376Z,100103.06
2023-02-03T15:00:33.836Z,100109.80
2023-02-03T15:03:11.104Z,100113.62
2023-02-03T15:05:44.318Z,100111.66
2023-02-03T15:08:40.700Z,100115.50
2023-02-03T15:11:30.301Z,100112.28
2023-02-03T15:14:20.335Z,100114.14
2023-02-03T15:17:03.867Z,100112.61
2023-02-03T15:19:34.840Z,100114.08
2023-02-03T15:22:24.427Z,100115.86
2023-02-03T15:24:54.269Z,100116.33
2023-02-03T15:27:24.611Z,100110.58
2023-02-03T15:29:53.322Z,100108.92
2023-02-03T15:32:30.480Z,100108.90
2023-02-03T15:34:59.041Z,100107.91
2023-02-03T15:38:05.339Z,100107.78
2023-02-03T15:40:41.545Z,100104.52
2023-02-03T15:43:22.190Z,100105.59
2023-02-03T15:46:00.537Z,100104.13
2023-02-03T15:48:37.344Z,100106.64
2023-02-03T15:51:16.562Z,100115.68
2023-02-03T15:53:48.682Z,100112.09
2023-02-03T15:56:42.194Z,100116.09
2023-02-03T15:59:25.678Z,100110.15
2023-02-03T16:01:55.157Z,100116.46
2023-02-03T16:04:24.968Z,100116.41
2023-02-03T16:06:54.556Z,100116.80
2023-02-03T16:09:29.791Z,100114.45
2023-02-03T16:12:24.988Z,100110.71
2023-02-03T16:14:54.631Z,100110.87
2023-02-03T16:17:23.293Z,100110.91
2023-02-03T16:19:52.695Z,100114.43
2023-02-03T16:22:32.400Z,100110.70
2023-02-03T16:25:20.405Z,100111.15
2023-02-03T16:28:19.117Z,100112.53
2023-02-03T16:31:18.377Z,100116.25
2023-02-03T16:34:06.409Z,100116.92
2023-02-03T16:36:58.589Z,100116.30
2023-02-03T16:39:46.088Z,100121.63
2023-02-03T16:42:37.775Z,100121.83
2023-02-03T16:45:32.406Z,100123.13
2023-02-03T16:48:20.795Z,100122.92
2023-02-03T16:50:58.988Z,100121.20
2023-02-03T16:53:31.904Z,100123.92
2023-02-03T16:56:01.966Z,100124.15
2023-02-03T16:58:31.538Z,100121.73
2023-02-03T17:01:00.822Z,100120.90
2023-02-03T17:03:30.482Z,100114.92
2023-02-03T17:06:08.740Z,100116.48
2023-02-03T17:08:38.182Z,100116.67
2023-02-03T17:11:18.538Z,100113.67
2023-02-03T17:13:48.289Z,100116.53
2023-02-03T17:16:23.078Z,100121.20
2023-02-03T17:18:51.641Z,100120.34
2023-02-03T17:21:25.801Z,100126.08
2023-02-03T17:23:54.341Z,100124.98
2023-02-03T17:26:23.106Z,100124.65
2023-02-03T17:28:51.735Z,100123.78
2023-02-03T17:31:20.943Z,100128.31
2023-02-03T17:33:52.694Z,100125.44
2023-02-03T17:36:24.555Z,100126.87
2023-02-03T17:55:33.329Z,100120.33
2023-02-03T17:58:02.084Z,100124.80
2023-02-03T18:00:31.014Z,100123.84
2023-02-03T18:02:59.886Z,100120.61
2023-02-03T18:05:29.281Z,100121.73
2023-02-03T18:08:01.068Z,100121.31
2023-02-03T18:10:35.062Z,100121.35
2023-02-03T18:13:05.086Z,100123.13
2023-02-03T18:15:33.911Z,100122.82
2023-02-03T18:18:02.533Z,100122.27
2023-02-03T18:20:31.436Z,100117.00
2023-02-03T18:23:00.278Z,100115.27
2023-02-03T18:25:29.570Z,100113.64
2023-02-03T18:27:59.155Z,100113.37
2023-02-03T18:30:28.402Z,100112.54
2023-02-03T18:32:57.989Z,100109.55
2023-02-03T18:35:26.659Z,100110.27
2023-02-03T18:37:55.670Z,100108.17
2023-02-03T18:40:24.143Z,100105.02
2023-02-03T18:42:56.463Z,100102.27
2023-02-03T18:45:25.253Z,100099.52
2023-02-03T18:47:53.614Z,100095.71
2023-02-03T18:50:24.536Z,100092.18
2023-02-03T18:52:54.449Z,100092.22
2023-02-03T18:55:23.044Z,100095.95
2023-02-03T18:57:51.803Z,100092.56
2023-02-03T19:00:20.941Z,100085.08
2023-02-03T19:02:50.375Z,100084.52
2023-02-03T19:05:19.888Z,100081.93
2023-02-03T19:07:49.531Z,100083.42
2023-02-03T19:10:18.440Z,100086.83
2023-02-03T19:12:48.238Z,100090.27
2023-02-03T19:15:17.236Z,100082.64
2023-02-03T19:17:46.237Z,100082.73
2023-02-03T19:20:14.939Z,100082.61
2023-02-03T19:22:45.450Z,100081.48
2023-02-03T19:25:14.252Z,100077.02
2023-02-03T19:27:43.382Z,100083.05
2023-02-03T19:30:12.601Z,100081.42
2023-02-03T19:32:42.856Z,100080.53
2023-02-03T19:35:12.854Z,100078.05
2023-02-03T19:37:42.276Z,100075.94
2023-02-03T19:40:11.754Z,100072.42
2023-02-03T19:42:41.358Z,100070.45
2023-02-03T19:45:10.366Z,100066.65
2023-02-03T19:47:39.888Z,100067.46
2023-02-03T19:50:09.610Z,100066.02
2023-02-03T19:52:37.981Z,100064.96
2023-02-03T19:55:06.611Z,100067.04
2023-02-03T19:57:35.391Z,100061.58
2023-02-03T20:00:04.367Z,100058.63
2023-02-03T20:02:42.928Z,100060.83
2023-02-03T20:05:12.056Z,100059.65
2023-02-03T20:07:40.850Z,100058.34
2023-02-03T20:10:10.037Z,100060.39
2023-02-03T20:12:50.314Z,100058.93
2023-02-03T20:15:19.201Z,100049.85
2023-02-03T20:17:51.060Z,100051.77
2023-02-03T20:20:20.913Z,100051.70
2023-02-03T20:22:49.642Z,100051.20
2023-02-03T20:25:19.474Z,100052.66
2023-02-03T20:27:48.539Z,100053.30
2023-02-03T20:30:17.745Z,100051.96
2023-02-03T20:32:47.678Z,100055.20
2023-02-03T20:35:16.772Z,100058.11
2023-02-03T20:37:45.662Z,100060.63
2023-02-03T20:40:17.420Z,100063.54
2023-02-03T20:42:47.956Z,100064.02
2023-02-03T20:45:17.424Z,100067.87
2023-02-03T20:47:47.069Z,100071.33
2023-02-03T20:50:28.913Z,100074.68
2023-02-03T20:53:01.126Z,100070.92
2023-02-03T20:55:30.123Z,100070.86
2023-02-03T20:57:58.716Z,100066.81
2023-02-03T21:00:28.290Z,100065.71
2023-02-03T21:03:15.332Z,100068.20
2023-02-03T21:05:45.531Z,100063.36
2023-02-03T21:08:16.111Z,100060.27
2023-02-03T21:10:45.434Z,100061.40
2023-02-03T21:13:33.837Z,100062.51
2023-02-03T21:16:05.247Z,100058.48
2023-02-03T21:18:37.693Z,100063.81
2023-02-03T21:21:15.430Z,100058.77
2023-02-03T21:23:47.152Z,100056.96
2023-02-03T21:26:27.030Z,100052.96
2023-02-03T21:28:57.175Z,100051.16
2023-02-03T21:31:31.056Z,100048.09
2023-02-03T21:34:04.107Z,100047.27
2023-02-03T21:36:36.077Z,100046.29
2023-02-03T21:39:25.517Z,100041.15
2023-02-03T21:41:53.898Z,100039.38
2023-02-03T21:44:33.438Z,100041.35
2023-02-03T21:47:06.330Z,100035.16
2023-02-03T21:49:34.760Z,100034.77
2023-02-03T21:52:03.971Z,100028.34
2023-02-03T21:54:34.031Z,100029.11
2023-02-03T21:57:02.581Z,100024.33
2023-02-03T21:59:38.715Z,100017.90
2023-02-03T22:02:44.620Z,100018.44
2023-02-03T22:05:16.753Z,100017.98
2023-02-03T22:07:45.042Z,100014.29
2023-02-03T22:10:14.477Z,100014.10
2023-02-03T22:12:42.950Z,100013.31
2023-02-03T22:15:12.701Z,100013.16
2023-02-03T22:17:41.592Z,100007.04
2023-02-03T22:20:11.116Z,100008.34
2023-02-03T22:22:39.533Z,100004.42
2023-02-03T22:25:08.528Z,100009.41
2023-02-03T22:27:37.315Z,100006.47
2023-02-03T22:30:06.307Z,100006.13
2023-02-03T22:32:34.897Z,100006.57
2023-02-03T22:35:04.105Z,100006.66
2023-02-03T22:37:34.037Z,100002.02
2023-02-03T22:40:05.910Z,99998.47
2023-02-03T22:42:34.658Z,99996.58
2023-02-03T22:45:03.744Z,99991.95
2023-02-03T22:47:32.558Z,99993.02
2023-02-03T22:50:01.626Z,99991.46
2023-02-03T22:52:30.727Z,99986.17
2023-02-03T22:55:00.684Z,99986.26
2023-02-03T22:57:28.938Z,99987.63
2023-02-03T22:59:58.317Z,99989.67
2023-02-03T23:02:27.046Z,99989.95
2023-02-03T23:04:55.534Z,99992.87
2023-02-03T23:07:24.446Z,99989.94
2023-02-03T23:09:53.160Z,99995.03
2023-02-03T23:12:21.850Z,99993.83
2023-02-03T23:14:53.278Z,99989.41
2023-02-03T23:17:22.109Z,99987.09
2023-02-03T23:19:50.585Z,99984.64
2023-02-03T23:22:19.208Z,99985.14
2023-02-03T23:24:47.647Z,99985.38
2023-02-03T23:27:16.354Z,99984.04
2023-02-03T23:29:45.115Z,99982.88
2023-02-03T23:32:13.595Z,99981.34
2023-02-03T23:35:01.334Z,99981.68
2023-02-03T23:37:30.732Z,99986.24
2023-02-03T23:40:00.733Z,99986.05
2023-02-03T23:42:29.057Z,99987.52
2023-02-03T23:44:57.329Z,99980.70
2023-02-03T23:47:26.608Z,99976.23
2023-02-03T23:49:55.191Z,99979.69
2023-02-03T23:52:23.768Z,99977.66
2023-02-03T23:54:53.095Z,99976.06
2023-02-03T23:57:21.892Z,99972.89
2023-02-03T23:59:51.265Z,99964.63
